map of KJWG home
KJWG - Airport
Location
City:  Watonga, Oklahoma, United States
Name:Watonga Regional
ICAO:KJWG
FAA LID:JWG

Details
Type:Airport (Airfield)
Use:Public/Civil
Latitude:3551'52"N (35.864556)
Longitude:9825'15"W (-98.420749)
Datum:WGS 1984
Elevation:1551 ft (473 m)
Variation:4.17E (WMM2015 magnetic declination)
-0.11 annual change
Runways:1
Longest:4001 × 60 ft (1220 × 18.5 m), paved

Time
Time Zone:UTC-6 (DST-5)
Local Time:

Weather
METAR:KJWG 160915Z AUTO 18008KT 5SM BR CLR 04/04 A3012 RMK AO2 T00420042

Related Locations
Nearby:
Farthest:RRG: 10870 mi / 17494 km
Plaine Corail [Sir Gatan Duval Airport (Plaine Corail Airport)], Rodrigues Island, MU

Find:

   beyond  
but within

Other Information
Maps:
NOTAMs:
Links:
Sources:

  
  • flag of United States
  • flag of Oklahoma
  

Sectional Chart

Flight Planning
at skyvector.com

Satellite Image

Google Maps Satellite view

 

Copyright © 2004-2019 Karl L. Swartz. All rights reserved.
The Great Circle Mapper name and logo are trademarks of the Great Circle Mapper.
All other trademarks mentioned herein belong to their respective owners.
Please see credits for attibutions and further copyright information.

  Follow gcmap on Facebook Follow gcmap on Twitter Follow gcmap on Google+ GCmap on LinkedIn

hCard Microformat

Geo Microformat